sensor_id;sensor_type;location;lat;lon;timestamp;P1;durP1;ratioP1;P2;durP2;ratioP2
66425;SDS011;53237;46.158;14.604;2023-04-24T00:02:13;4.07;;;3.78;;
66425;SDS011;53237;46.158;14.604;2023-04-24T00:04:40;4.43;;;4.03;;
66425;SDS011;53237;46.158;14.604;2023-04-24T00:07:09;3.97;;;3.67;;
66425;SDS011;53237;46.158;14.604;2023-04-24T00:09:35;3.97;;;3.67;;
66425;SDS011;53237;46.158;14.604;2023-04-24T00:12:02;4.10;;;3.80;;
66425;SDS011;53237;46.158;14.604;2023-04-24T00:14:31;3.88;;;3.58;;
66425;SDS011;53237;46.158;14.604;2023-04-24T00:16:57;5.63;;;5.13;;
66425;SDS011;53237;46.158;14.604;2023-04-24T00:19:23;5.88;;;5.28;;
66425;SDS011;53237;46.158;14.604;2023-04-24T00:21:49;4.47;;;4.18;;
66425;SDS011;53237;46.158;14.604;2023-04-24T00:24:16;4.90;;;4.50;;
66425;SDS011;53237;46.158;14.604;2023-04-24T00:26:42;4.47;;;4.18;;
66425;SDS011;53237;46.158;14.604;2023-04-24T00:29:08;4.10;;;3.70;;
66425;SDS011;53237;46.158;14.604;2023-04-24T00:31:34;4.45;;;4.05;;
66425;SDS011;53237;46.158;14.604;2023-04-24T00:34:01;4.75;;;4.35;;
66425;SDS011;53237;46.158;14.604;2023-04-24T00:36:27;4.75;;;4.38;;
66425;SDS011;53237;46.158;14.604;2023-04-24T00:38:53;4.78;;;4.38;;
66425;SDS011;53237;46.158;14.604;2023-04-24T00:41:20;5.18;;;4.78;;
66425;SDS011;53237;46.158;14.604;2023-04-24T00:43:46;4.88;;;4.30;;
66425;SDS011;53237;46.158;14.604;2023-04-24T00:46:12;4.60;;;4.20;;
66425;SDS011;53237;46.158;14.604;2023-04-24T00:48:39;4.80;;;4.40;;
66425;SDS011;53237;46.158;14.604;2023-04-24T00:51:05;4.40;;;4.05;;
66425;SDS011;53237;46.158;14.604;2023-04-24T00:53:31;4.90;;;4.50;;
66425;SDS011;53237;46.158;14.604;2023-04-24T00:55:57;4.40;;;4.10;;
66425;SDS011;53237;46.158;14.604;2023-04-24T00:58:24;4.43;;;4.10;;
66425;SDS011;53237;46.158;14.604;2023-04-24T01:00:50;4.50;;;4.10;;
66425;SDS011;53237;46.158;14.604;2023-04-24T01:03:18;4.63;;;4.22;;
66425;SDS011;53237;46.158;14.604;2023-04-24T01:05:45;4.65;;;4.35;;
66425;SDS011;53237;46.158;14.604;2023-04-24T01:08:11;4.47;;;4.18;;
66425;SDS011;53237;46.158;14.604;2023-04-24T01:10:37;4.22;;;3.83;;
66425;SDS011;53237;46.158;14.604;2023-04-24T01:13:04;4.20;;;3.80;;
66425;SDS011;53237;46.158;14.604;2023-04-24T01:15:30;4.32;;;3.97;;
66425;SDS011;53237;46.158;14.604;2023-04-24T01:17:56;4.50;;;4.10;;
66425;SDS011;53237;46.158;14.604;2023-04-24T01:20:22;4.22;;;3.92;;
66425;SDS011;53237;46.158;14.604;2023-04-24T01:22:50;4.30;;;3.90;;
66425;SDS011;53237;46.158;14.604;2023-04-24T01:25:16;4.40;;;4.00;;
66425;SDS011;53237;46.158;14.604;2023-04-24T01:27:43;5.47;;;4.97;;
66425;SDS011;53237;46.158;14.604;2023-04-24T01:30:09;5.03;;;4.60;;
66425;SDS011;53237;46.158;14.604;2023-04-24T01:32:35;4.60;;;4.20;;
66425;SDS011;53237;46.158;14.604;2023-04-24T01:35:02;4.45;;;4.15;;
66425;SDS011;53237;46.158;14.604;2023-04-24T01:37:28;4.28;;;3.95;;
66425;SDS011;53237;46.158;14.604;2023-04-24T01:39:54;7.25;;;6.60;;
66425;SDS011;53237;46.158;14.604;2023-04-24T01:42:20;4.80;;;4.40;;
66425;SDS011;53237;46.158;14.604;2023-04-24T01:44:46;4.15;;;3.85;;
66425;SDS011;53237;46.158;14.604;2023-04-24T01:47:12;4.72;;;4.35;;
66425;SDS011;53237;46.158;14.604;2023-04-24T01:49:39;4.72;;;4.32;;
66425;SDS011;53237;46.158;14.604;2023-04-24T01:52:05;4.40;;;3.80;;
66425;SDS011;53237;46.158;14.604;2023-04-24T01:54:31;4.35;;;4.03;;
66425;SDS011;53237;46.158;14.604;2023-04-24T01:56:57;4.53;;;4.13;;
66425;SDS011;53237;46.158;14.604;2023-04-24T01:59:23;4.85;;;4.45;;
66425;SDS011;53237;46.158;14.604;2023-04-24T02:01:51;4.53;;;4.22;;
66425;SDS011;53237;46.158;14.604;2023-04-24T02:04:16;5.03;;;4.55;;
66425;SDS011;53237;46.158;14.604;2023-04-24T02:06:42;4.82;;;4.43;;
66425;SDS011;53237;46.158;14.604;2023-04-24T02:09:08;4.22;;;3.88;;
66425;SDS011;53237;46.158;14.604;2023-04-24T02:11:35;3.92;;;3.63;;
66425;SDS011;53237;46.158;14.604;2023-04-24T02:14:01;4.30;;;3.90;;
66425;SDS011;53237;46.158;14.604;2023-04-24T02:16:28;4.30;;;3.97;;
66425;SDS011;53237;46.158;14.604;2023-04-24T02:18:57;4.43;;;3.90;;
66425;SDS011;53237;46.158;14.604;2023-04-24T02:21:23;4.35;;;3.95;;
66425;SDS011;53237;46.158;14.604;2023-04-24T02:23:50;4.25;;;3.92;;
66425;SDS011;53237;46.158;14.604;2023-04-24T02:26:16;4.75;;;4.35;;
66425;SDS011;53237;46.158;14.604;2023-04-24T02:28:43;4.97;;;4.03;;
66425;SDS011;53237;46.158;14.604;2023-04-24T02:31:09;4.63;;;4.22;;
66425;SDS011;53237;46.158;14.604;2023-04-24T02:33:35;4.90;;;4.50;;
66425;SDS011;53237;46.158;14.604;2023-04-24T02:36:01;3.65;;;3.40;;
66425;SDS011;53237;46.158;14.604;2023-04-24T02:38:28;4.20;;;3.90;;
66425;SDS011;53237;46.158;14.604;2023-04-24T02:40:54;4.05;;;3.72;;
66425;SDS011;53237;46.158;14.604;2023-04-24T02:43:20;4.20;;;3.90;;
66425;SDS011;53237;46.158;14.604;2023-04-24T02:45:46;3.85;;;3.55;;
66425;SDS011;53237;46.158;14.604;2023-04-24T02:48:12;4.15;;;3.83;;
66425;SDS011;53237;46.158;14.604;2023-04-24T02:50:38;3.70;;;3.40;;
66425;SDS011;53237;46.158;14.604;2023-04-24T02:53:04;4.13;;;3.83;;
66425;SDS011;53237;46.158;14.604;2023-04-24T02:55:30;3.67;;;3.38;;
66425;SDS011;53237;46.158;14.604;2023-04-24T02:57:56;4.05;;;3.75;;
66425;SDS011;53237;46.158;14.604;2023-04-24T03:00:22;5.30;;;4.85;;
66425;SDS011;53237;46.158;14.604;2023-04-24T03:02:48;4.72;;;4.43;;
66425;SDS011;53237;46.158;14.604;2023-04-24T03:05:14;4.55;;;4.15;;
66425;SDS011;53237;46.158;14.604;2023-04-24T03:07:41;7.10;;;5.40;;
66425;SDS011;53237;46.158;14.604;2023-04-24T03:10:07;4.97;;;4.32;;
66425;SDS011;53237;46.158;14.604;2023-04-24T03:12:33;4.30;;;4.00;;
66425;SDS011;53237;46.158;14.604;2023-04-24T03:14:59;3.85;;;3.55;;
66425;SDS011;53237;46.158;14.604;2023-04-24T03:17:25;4.30;;;4.00;;
66425;SDS011;53237;46.158;14.604;2023-04-24T03:19:51;4.18;;;3.75;;
66425;SDS011;53237;46.158;14.604;2023-04-24T03:22:17;4.07;;;3.70;;
66425;SDS011;53237;46.158;14.604;2023-04-24T03:24:43;3.90;;;3.60;;
66425;SDS011;53237;46.158;14.604;2023-04-24T03:27:09;4.10;;;3.80;;
66425;SDS011;53237;46.158;14.604;2023-04-24T03:29:35;3.72;;;3.42;;
66425;SDS011;53237;46.158;14.604;2023-04-24T03:32:01;4.13;;;3.83;;
66425;SDS011;53237;46.158;14.604;2023-04-24T03:34:27;4.15;;;3.85;;
66425;SDS011;53237;46.158;14.604;2023-04-24T03:36:53;4.15;;;3.80;;
66425;SDS011;53237;46.158;14.604;2023-04-24T03:39:19;4.15;;;3.75;;
66425;SDS011;53237;46.158;14.604;2023-04-24T03:41:45;4.10;;;3.80;;
66425;SDS011;53237;46.158;14.604;2023-04-24T03:44:11;3.95;;;3.65;;
66425;SDS011;53237;46.158;14.604;2023-04-24T03:46:37;3.97;;;3.67;;
66425;SDS011;53237;46.158;14.604;2023-04-24T03:49:03;3.78;;;3.47;;
66425;SDS011;53237;46.158;14.604;2023-04-24T03:51:29;4.28;;;3.97;;
66425;SDS011;53237;46.158;14.604;2023-04-24T03:53:56;3.78;;;3.47;;
66425;SDS011;53237;46.158;14.604;2023-04-24T03:56:22;4.57;;;3.97;;
66425;SDS011;53237;46.158;14.604;2023-04-24T03:58:48;4.25;;;3.85;;
66425;SDS011;53237;46.158;14.604;2023-04-24T04:01:14;3.85;;;3.55;;
66425;SDS011;53237;46.158;14.604;2023-04-24T04:03:41;6.45;;;3.78;;
66425;SDS011;53237;46.158;14.604;2023-04-24T04:06:07;4.63;;;4.22;;
66425;SDS011;53237;46.158;14.604;2023-04-24T04:08:33;7.68;;;6.90;;
66425;SDS011;53237;46.158;14.604;2023-04-24T04:10:59;8.40;;;5.50;;
66425;SDS011;53237;46.158;14.604;2023-04-24T04:13:25;5.07;;;4.68;;
66425;SDS011;53237;46.158;14.604;2023-04-24T04:15:51;4.10;;;3.80;;
66425;SDS011;53237;46.158;14.604;2023-04-24T04:18:17;4.40;;;4.00;;
66425;SDS011;53237;46.158;14.604;2023-04-24T04:20:43;4.13;;;3.83;;
66425;SDS011;53237;46.158;14.604;2023-04-24T04:23:09;4.00;;;3.70;;
66425;SDS011;53237;46.158;14.604;2023-04-24T04:25:35;4.60;;;4.20;;
66425;SDS011;53237;46.158;14.604;2023-04-24T04:28:01;4.25;;;3.85;;
66425;SDS011;53237;46.158;14.604;2023-04-24T04:30:27;4.63;;;4.22;;
66425;SDS011;53237;46.158;14.604;2023-04-24T04:32:57;5.40;;;4.63;;
66425;SDS011;53237;46.158;14.604;2023-04-24T04:35:23;4.07;;;3.67;;
66425;SDS011;53237;46.158;14.604;2023-04-24T04:37:49;4.22;;;3.92;;
66425;SDS011;53237;46.158;14.604;2023-04-24T04:40:16;4.45;;;4.13;;
66425;SDS011;53237;46.158;14.604;2023-04-24T04:42:42;4.15;;;3.80;;
66425;SDS011;53237;46.158;14.604;2023-04-24T04:45:10;4.10;;;3.80;;
66425;SDS011;53237;46.158;14.604;2023-04-24T04:47:37;4.57;;;4.18;;
66425;SDS011;53237;46.158;14.604;2023-04-24T04:50:03;4.95;;;4.55;;
66425;SDS011;53237;46.158;14.604;2023-04-24T04:52:30;4.80;;;4.40;;
66425;SDS011;53237;46.158;14.604;2023-04-24T04:54:56;4.82;;;4.43;;
66425;SDS011;53237;46.158;14.604;2023-04-24T04:57:22;4.82;;;4.43;;
66425;SDS011;53237;46.158;14.604;2023-04-24T04:59:48;4.15;;;3.85;;
66425;SDS011;53237;46.158;14.604;2023-04-24T05:02:14;4.65;;;4.20;;
66425;SDS011;53237;46.158;14.604;2023-04-24T05:04:40;4.43;;;4.13;;
66425;SDS011;53237;46.158;14.604;2023-04-24T05:07:06;4.47;;;4.07;;
66425;SDS011;53237;46.158;14.604;2023-04-24T05:09:32;4.72;;;4.22;;
66425;SDS011;53237;46.158;14.604;2023-04-24T05:11:58;4.57;;;4.18;;
66425;SDS011;53237;46.158;14.604;2023-04-24T05:14:25;4.63;;;4.18;;
66425;SDS011;53237;46.158;14.604;2023-04-24T05:16:51;5.80;;;4.32;;
66425;SDS011;53237;46.158;14.604;2023-04-24T05:19:17;4.97;;;4.57;;
66425;SDS011;53237;46.158;14.604;2023-04-24T05:21:43;5.20;;;4.70;;
66425;SDS011;53237;46.158;14.604;2023-04-24T05:24:10;4.80;;;4.40;;
66425;SDS011;53237;46.158;14.604;2023-04-24T05:26:36;4.40;;;4.10;;
66425;SDS011;53237;46.158;14.604;2023-04-24T05:29:02;4.88;;;4.47;;
66425;SDS011;53237;46.158;14.604;2023-04-24T05:31:29;4.55;;;4.15;;
66425;SDS011;53237;46.158;14.604;2023-04-24T05:33:55;4.93;;;4.50;;
66425;SDS011;53237;46.158;14.604;2023-04-24T05:36:21;5.72;;;4.63;;
66425;SDS011;53237;46.158;14.604;2023-04-24T05:38:47;5.57;;;4.50;;
66425;SDS011;53237;46.158;14.604;2023-04-24T05:41:13;4.95;;;4.55;;
66425;SDS011;53237;46.158;14.604;2023-04-24T05:43:40;5.05;;;4.65;;
66425;SDS011;53237;46.158;14.604;2023-04-24T05:46:06;5.65;;;5.15;;
66425;SDS011;53237;46.158;14.604;2023-04-24T05:48:32;5.07;;;4.57;;
66425;SDS011;53237;46.158;14.604;2023-04-24T05:50:58;5.32;;;4.82;;
66425;SDS011;53237;46.158;14.604;2023-04-24T05:53:24;5.50;;;4.97;;
66425;SDS011;53237;46.158;14.604;2023-04-24T05:55:50;4.70;;;4.20;;
66425;SDS011;53237;46.158;14.604;2023-04-24T05:58:16;4.68;;;4.28;;
66425;SDS011;53237;46.158;14.604;2023-04-24T06:00:42;5.40;;;4.90;;
66425;SDS011;53237;46.158;14.604;2023-04-24T06:03:08;5.65;;;4.78;;
66425;SDS011;53237;46.158;14.604;2023-04-24T06:05:34;5.05;;;4.65;;
66425;SDS011;53237;46.158;14.604;2023-04-24T06:08:00;5.63;;;5.15;;
66425;SDS011;53237;46.158;14.604;2023-04-24T06:10:26;5.72;;;5.22;;
66425;SDS011;53237;46.158;14.604;2023-04-24T06:12:52;6.93;;;5.35;;
66425;SDS011;53237;46.158;14.604;2023-04-24T06:15:21;5.10;;;4.70;;
66425;SDS011;53237;46.158;14.604;2023-04-24T06:17:47;5.45;;;4.95;;
66425;SDS011;53237;46.158;14.604;2023-04-24T06:20:13;6.85;;;6.25;;
66425;SDS011;53237;46.158;14.604;2023-04-24T06:22:39;5.70;;;5.30;;
66425;SDS011;53237;46.158;14.604;2023-04-24T06:25:05;6.93;;;6.15;;
66425;SDS011;53237;46.158;14.604;2023-04-24T06:27:32;5.78;;;5.28;;
66425;SDS011;53237;46.158;14.604;2023-04-24T06:29:58;5.65;;;5.15;;
66425;SDS011;53237;46.158;14.604;2023-04-24T06:32:24;5.97;;;5.28;;
66425;SDS011;53237;46.158;14.604;2023-04-24T06:34:51;5.53;;;5.03;;
66425;SDS011;53237;46.158;14.604;2023-04-24T06:37:18;5.35;;;4.85;;
66425;SDS011;53237;46.158;14.604;2023-04-24T06:39:44;5.50;;;5.10;;
66425;SDS011;53237;46.158;14.604;2023-04-24T06:42:10;4.90;;;4.50;;
66425;SDS011;53237;46.158;14.604;2023-04-24T06:44:36;5.53;;;5.03;;
66425;SDS011;53237;46.158;14.604;2023-04-24T06:47:06;7.78;;;5.72;;
66425;SDS011;53237;46.158;14.604;2023-04-24T06:49:33;7.97;;;7.28;;
66425;SDS011;53237;46.158;14.604;2023-04-24T06:51:59;7.15;;;6.55;;
66425;SDS011;53237;46.158;14.604;2023-04-24T06:54:25;7.85;;;7.15;;
66425;SDS011;53237;46.158;14.604;2023-04-24T06:56:51;6.15;;;5.65;;
66425;SDS011;53237;46.158;14.604;2023-04-24T06:59:17;5.90;;;5.40;;
66425;SDS011;53237;46.158;14.604;2023-04-24T07:01:43;5.32;;;4.82;;
66425;SDS011;53237;46.158;14.604;2023-04-24T07:04:10;8.35;;;7.65;;
66425;SDS011;53237;46.158;14.604;2023-04-24T07:06:37;7.57;;;6.82;;
66425;SDS011;53237;46.158;14.604;2023-04-24T07:09:04;5.93;;;5.53;;
66425;SDS011;53237;46.158;14.604;2023-04-24T07:11:30;5.50;;;5.00;;
66425;SDS011;53237;46.158;14.604;2023-04-24T07:13:57;5.80;;;5.28;;
66425;SDS011;53237;46.158;14.604;2023-04-24T07:16:23;6.03;;;5.53;;
66425;SDS011;53237;46.158;14.604;2023-04-24T07:18:49;6.72;;;6.13;;
66425;SDS011;53237;46.158;14.604;2023-04-24T07:21:16;7.50;;;6.80;;
66425;SDS011;53237;46.158;14.604;2023-04-24T07:23:42;7.63;;;6.93;;
66425;SDS011;53237;46.158;14.604;2023-04-24T07:26:08;8.52;;;7.72;;
66425;SDS011;53237;46.158;14.604;2023-04-24T07:28:34;8.23;;;7.43;;
66425;SDS011;53237;46.158;14.604;2023-04-24T07:31:00;7.97;;;7.25;;
66425;SDS011;53237;46.158;14.604;2023-04-24T07:33:26;8.00;;;7.30;;
66425;SDS011;53237;46.158;14.604;2023-04-24T07:35:52;6.65;;;6.05;;
66425;SDS011;53237;46.158;14.604;2023-04-24T07:38:18;6.05;;;5.55;;
66425;SDS011;53237;46.158;14.604;2023-04-24T07:40:48;6.65;;;6.05;;
66425;SDS011;53237;46.158;14.604;2023-04-24T07:43:14;6.50;;;5.55;;
66425;SDS011;53237;46.158;14.604;2023-04-24T07:45:40;6.70;;;5.40;;
66425;SDS011;53237;46.158;14.604;2023-04-24T07:48:06;5.47;;;5.07;;
66425;SDS011;53237;46.158;14.604;2023-04-24T07:50:34;6.10;;;5.50;;
66425;SDS011;53237;46.158;14.604;2023-04-24T07:53:01;6.38;;;5.70;;
66425;SDS011;53237;46.158;14.604;2023-04-24T07:55:27;5.90;;;5.40;;
66425;SDS011;53237;46.158;14.604;2023-04-24T07:57:53;7.45;;;6.75;;
66425;SDS011;53237;46.158;14.604;2023-04-24T08:00:19;10.63;;;9.55;;
66425;SDS011;53237;46.158;14.604;2023-04-24T08:02:45;8.15;;;7.32;;
66425;SDS011;53237;46.158;14.604;2023-04-24T08:05:11;10.05;;;8.57;;
66425;SDS011;53237;46.158;14.604;2023-04-24T08:07:37;6.75;;;6.22;;
66425;SDS011;53237;46.158;14.604;2023-04-24T08:10:04;6.80;;;6.22;;
66425;SDS011;53237;46.158;14.604;2023-04-24T08:12:30;7.13;;;6.43;;
66425;SDS011;53237;46.158;14.604;2023-04-24T08:14:56;6.18;;;5.68;;
66425;SDS011;53237;46.158;14.604;2023-04-24T08:17:22;5.80;;;5.20;;
66425;SDS011;53237;46.158;14.604;2023-04-24T08:19:48;7.22;;;6.63;;
66425;SDS011;53237;46.158;14.604;2023-04-24T08:22:16;6.85;;;6.22;;
66425;SDS011;53237;46.158;14.604;2023-04-24T08:24:42;6.47;;;5.88;;
66425;SDS011;53237;46.158;14.604;2023-04-24T08:27:09;6.43;;;5.90;;
66425;SDS011;53237;46.158;14.604;2023-04-24T08:29:35;6.55;;;5.95;;
66425;SDS011;53237;46.158;14.604;2023-04-24T08:32:01;7.03;;;6.32;;
66425;SDS011;53237;46.158;14.604;2023-04-24T08:34:27;7.70;;;7.00;;
66425;SDS011;53237;46.158;14.604;2023-04-24T08:36:53;7.28;;;6.55;;
66425;SDS011;53237;46.158;14.604;2023-04-24T08:39:19;6.68;;;6.07;;
66425;SDS011;53237;46.158;14.604;2023-04-24T08:41:45;6.65;;;5.95;;
66425;SDS011;53237;46.158;14.604;2023-04-24T08:44:14;6.68;;;6.07;;
66425;SDS011;53237;46.158;14.604;2023-04-24T08:46:42;6.07;;;5.57;;
66425;SDS011;53237;46.158;14.604;2023-04-24T08:49:09;7.30;;;6.63;;
66425;SDS011;53237;46.158;14.604;2023-04-24T08:51:36;7.60;;;6.90;;
66425;SDS011;53237;46.158;14.604;2023-04-24T08:54:02;7.13;;;6.50;;
66425;SDS011;53237;46.158;14.604;2023-04-24T08:56:29;6.65;;;6.13;;
66425;SDS011;53237;46.158;14.604;2023-04-24T08:58:56;12.10;;;8.57;;
66425;SDS011;53237;46.158;14.604;2023-04-24T09:01:22;8.70;;;7.50;;
66425;SDS011;53237;46.158;14.604;2023-04-24T09:03:50;7.10;;;6.47;;
66425;SDS011;53237;46.158;14.604;2023-04-24T09:06:17;7.20;;;6.05;;
66425;SDS011;53237;46.158;14.604;2023-04-24T09:08:43;6.25;;;5.75;;
66425;SDS011;53237;46.158;14.604;2023-04-24T09:11:10;6.68;;;6.07;;
66425;SDS011;53237;46.158;14.604;2023-04-24T09:13:37;7.22;;;6.53;;
66425;SDS011;53237;46.158;14.604;2023-04-24T09:16:03;6.82;;;6.22;;
66425;SDS011;53237;46.158;14.604;2023-04-24T09:18:29;7.35;;;6.65;;
66425;SDS011;53237;46.158;14.604;2023-04-24T09:21:03;7.03;;;6.32;;
66425;SDS011;53237;46.158;14.604;2023-04-24T09:23:31;6.65;;;6.05;;
66425;SDS011;53237;46.158;14.604;2023-04-24T09:25:57;7.43;;;6.72;;
66425;SDS011;53237;46.158;14.604;2023-04-24T09:28:45;7.10;;;6.47;;
66425;SDS011;53237;46.158;14.604;2023-04-24T09:33:37;8.00;;;7.30;;
66425;SDS011;53237;46.158;14.604;2023-04-24T09:36:04;9.38;;;8.32;;
66425;SDS011;53237;46.158;14.604;2023-04-24T09:38:32;10.27;;;8.85;;
66425;SDS011;53237;46.158;14.604;2023-04-24T09:41:01;7.13;;;6.53;;
66425;SDS011;53237;46.158;14.604;2023-04-24T09:43:28;6.57;;;5.97;;
66425;SDS011;53237;46.158;14.604;2023-04-24T09:45:58;6.28;;;5.75;;
66425;SDS011;53237;46.158;14.604;2023-04-24T09:48:35;8.15;;;6.68;;
66425;SDS011;53237;46.158;14.604;2023-04-24T09:51:02;6.40;;;5.68;;
66425;SDS011;53237;46.158;14.604;2023-04-24T09:53:29;6.07;;;4.97;;
66425;SDS011;53237;46.158;14.604;2023-04-24T09:55:55;6.88;;;6.00;;
66425;SDS011;53237;46.158;14.604;2023-04-24T09:58:25;9.95;;;7.75;;
66425;SDS011;53237;46.158;14.604;2023-04-24T10:00:54;8.05;;;7.20;;
66425;SDS011;53237;46.158;14.604;2023-04-24T10:03:22;6.25;;;5.65;;
66425;SDS011;53237;46.158;14.604;2023-04-24T10:05:49;5.35;;;4.70;;
66425;SDS011;53237;46.158;14.604;2023-04-24T10:08:17;6.53;;;5.90;;
66425;SDS011;53237;46.158;14.604;2023-04-24T10:10:46;5.38;;;4.88;;
66425;SDS011;53237;46.158;14.604;2023-04-24T10:13:13;6.05;;;5.53;;
66425;SDS011;53237;46.158;14.604;2023-04-24T10:15:40;5.43;;;4.90;;
66425;SDS011;53237;46.158;14.604;2023-04-24T10:18:07;4.75;;;4.28;;
66425;SDS011;53237;46.158;14.604;2023-04-24T10:20:35;4.75;;;4.28;;
66425;SDS011;53237;46.158;14.604;2023-04-24T10:23:01;4.85;;;4.45;;
66425;SDS011;53237;46.158;14.604;2023-04-24T10:25:28;5.18;;;4.63;;
66425;SDS011;53237;46.158;14.604;2023-04-24T10:27:55;6.78;;;5.25;;
66425;SDS011;53237;46.158;14.604;2023-04-24T10:30:25;5.15;;;4.70;;
66425;SDS011;53237;46.158;14.604;2023-04-24T10:32:52;5.00;;;4.07;;
66425;SDS011;53237;46.158;14.604;2023-04-24T10:35:18;4.47;;;4.10;;
66425;SDS011;53237;46.158;14.604;2023-04-24T10:37:50;4.13;;;3.72;;
66425;SDS011;53237;46.158;14.604;2023-04-24T10:40:25;6.75;;;4.35;;
66425;SDS011;53237;46.158;14.604;2023-04-24T10:42:51;4.70;;;3.88;;
66425;SDS011;53237;46.158;14.604;2023-04-24T10:45:21;3.53;;;3.20;;
66425;SDS011;53237;46.158;14.604;2023-04-24T10:47:51;5.07;;;4.07;;
66425;SDS011;53237;46.158;14.604;2023-04-24T10:50:17;4.28;;;3.92;;
66425;SDS011;53237;46.158;14.604;2023-04-24T10:52:44;5.53;;;3.85;;
66425;SDS011;53237;46.158;14.604;2023-04-24T10:55:10;5.47;;;4.95;;
66425;SDS011;53237;46.158;14.604;2023-04-24T10:57:38;4.63;;;4.00;;
66425;SDS011;53237;46.158;14.604;2023-04-24T11:02:40;4.78;;;3.70;;
66425;SDS011;53237;46.158;14.604;2023-04-24T11:05:14;4.60;;;4.18;;
66425;SDS011;53237;46.158;14.604;2023-04-24T11:10:26;5.05;;;4.65;;
66425;SDS011;53237;46.158;14.604;2023-04-24T11:12:52;5.63;;;4.25;;
66425;SDS011;53237;46.158;14.604;2023-04-24T11:15:18;4.90;;;4.50;;
66425;SDS011;53237;46.158;14.604;2023-04-24T11:17:44;4.53;;;3.90;;
66425;SDS011;53237;46.158;14.604;2023-04-24T11:20:11;3.72;;;3.42;;
66425;SDS011;53237;46.158;14.604;2023-04-24T11:22:42;4.28;;;3.88;;
66425;SDS011;53237;46.158;14.604;2023-04-24T11:25:08;5.72;;;5.05;;
66425;SDS011;53237;46.158;14.604;2023-04-24T11:27:40;9.32;;;5.78;;
66425;SDS011;53237;46.158;14.604;2023-04-24T11:30:08;9.80;;;6.57;;
66425;SDS011;53237;46.158;14.604;2023-04-24T11:32:38;16.27;;;10.70;;
66425;SDS011;53237;46.158;14.604;2023-04-24T11:37:35;8.73;;;5.90;;
66425;SDS011;53237;46.158;14.604;2023-04-24T11:40:02;8.38;;;7.50;;
66425;SDS011;53237;46.158;14.604;2023-04-24T11:42:33;6.82;;;5.85;;
66425;SDS011;53237;46.158;14.604;2023-04-24T11:45:00;6.57;;;5.93;;
66425;SDS011;53237;46.158;14.604;2023-04-24T11:47:30;6.72;;;6.00;;
66425;SDS011;53237;46.158;14.604;2023-04-24T11:49:58;9.18;;;6.70;;
66425;SDS011;53237;46.158;14.604;2023-04-24T11:52:25;12.40;;;8.15;;
66425;SDS011;53237;46.158;14.604;2023-04-24T11:54:51;8.13;;;6.65;;
66425;SDS011;53237;46.158;14.604;2023-04-24T11:57:20;6.72;;;5.80;;
66425;SDS011;53237;46.158;14.604;2023-04-24T11:59:47;7.35;;;6.40;;
66425;SDS011;53237;46.158;14.604;2023-04-24T12:02:20;6.38;;;5.75;;
66425;SDS011;53237;46.158;14.604;2023-04-24T12:04:46;6.30;;;5.70;;
66425;SDS011;53237;46.158;14.604;2023-04-24T12:07:12;6.00;;;5.40;;
66425;SDS011;53237;46.158;14.604;2023-04-24T12:09:45;5.50;;;5.00;;
66425;SDS011;53237;46.158;14.604;2023-04-24T12:12:12;6.22;;;5.50;;
66425;SDS011;53237;46.158;14.604;2023-04-24T12:14:57;5.97;;;5.38;;
66425;SDS011;53237;46.158;14.604;2023-04-24T12:17:30;6.00;;;4.85;;
66425;SDS011;53237;46.158;14.604;2023-04-24T12:20:06;6.05;;;5.18;;
66425;SDS011;53237;46.158;14.604;2023-04-24T12:22:49;6.15;;;5.57;;
66425;SDS011;53237;46.158;14.604;2023-04-24T12:25:15;7.00;;;6.30;;
66425;SDS011;53237;46.158;14.604;2023-04-24T12:27:43;6.32;;;5.72;;
66425;SDS011;53237;46.158;14.604;2023-04-24T12:30:18;6.38;;;5.78;;
66425;SDS011;53237;46.158;14.604;2023-04-24T12:32:45;7.07;;;6.35;;
66425;SDS011;53237;46.158;14.604;2023-04-24T12:35:11;7.30;;;6.60;;
66425;SDS011;53237;46.158;14.604;2023-04-24T12:37:37;7.82;;;7.03;;
66425;SDS011;53237;46.158;14.604;2023-04-24T12:40:11;8.57;;;7.85;;
66425;SDS011;53237;46.158;14.604;2023-04-24T12:42:44;8.00;;;7.20;;
66425;SDS011;53237;46.158;14.604;2023-04-24T12:45:10;7.10;;;6.40;;
66425;SDS011;53237;46.158;14.604;2023-04-24T12:47:37;8.40;;;6.60;;
66425;SDS011;53237;46.158;14.604;2023-04-24T12:50:04;6.80;;;6.20;;
66425;SDS011;53237;46.158;14.604;2023-04-24T12:52:30;7.03;;;6.32;;
66425;SDS011;53237;46.158;14.604;2023-04-24T12:54:57;6.47;;;5.88;;
66425;SDS011;53237;46.158;14.604;2023-04-24T12:57:24;6.47;;;5.88;;
66425;SDS011;53237;46.158;14.604;2023-04-24T12:59:53;8.70;;;7.90;;
66425;SDS011;53237;46.158;14.604;2023-04-24T13:02:19;6.88;;;6.28;;
66425;SDS011;53237;46.158;14.604;2023-04-24T13:04:47;5.57;;;5.07;;
66425;SDS011;53237;46.158;14.604;2023-04-24T13:07:13;5.22;;;4.80;;
66425;SDS011;53237;46.158;14.604;2023-04-24T13:09:39;6.45;;;5.75;;
66425;SDS011;53237;46.158;14.604;2023-04-24T13:12:06;5.85;;;5.35;;
66425;SDS011;53237;46.158;14.604;2023-04-24T13:14:32;4.65;;;4.25;;
66425;SDS011;53237;46.158;14.604;2023-04-24T13:16:58;5.40;;;4.70;;
66425;SDS011;53237;46.158;14.604;2023-04-24T13:19:24;5.07;;;4.20;;
66425;SDS011;53237;46.158;14.604;2023-04-24T13:21:51;4.97;;;4.57;;
66425;SDS011;53237;46.158;14.604;2023-04-24T13:24:17;4.50;;;4.10;;
66425;SDS011;53237;46.158;14.604;2023-04-24T13:26:43;5.15;;;4.57;;
66425;SDS011;53237;46.158;14.604;2023-04-24T13:29:09;4.32;;;3.92;;
66425;SDS011;53237;46.158;14.604;2023-04-24T13:31:36;5.80;;;5.30;;
66425;SDS011;53237;46.158;14.604;2023-04-24T13:34:02;5.05;;;4.53;;
66425;SDS011;53237;46.158;14.604;2023-04-24T13:36:28;4.75;;;4.35;;
66425;SDS011;53237;46.158;14.604;2023-04-24T13:38:55;3.83;;;3.38;;
66425;SDS011;53237;46.158;14.604;2023-04-24T13:41:21;3.53;;;3.22;;
66425;SDS011;53237;46.158;14.604;2023-04-24T13:43:47;3.58;;;3.28;;
66425;SDS011;53237;46.158;14.604;2023-04-24T13:46:13;3.72;;;3.30;;
66425;SDS011;53237;46.158;14.604;2023-04-24T13:48:39;3.60;;;3.30;;
66425;SDS011;53237;46.158;14.604;2023-04-24T13:51:05;3.30;;;3.03;;
66425;SDS011;53237;46.158;14.604;2023-04-24T13:53:31;4.10;;;3.65;;
66425;SDS011;53237;46.158;14.604;2023-04-24T13:55:57;3.67;;;3.25;;
66425;SDS011;53237;46.158;14.604;2023-04-24T13:58:23;3.47;;;3.00;;
66425;SDS011;53237;46.158;14.604;2023-04-24T14:00:50;3.97;;;3.50;;
66425;SDS011;53237;46.158;14.604;2023-04-24T14:03:16;4.53;;;3.50;;
66425;SDS011;53237;46.158;14.604;2023-04-24T14:05:42;6.63;;;4.53;;
66425;SDS011;53237;46.158;14.604;2023-04-24T14:08:08;5.60;;;3.10;;
66425;SDS011;53237;46.158;14.604;2023-04-24T14:10:34;4.35;;;3.80;;
66425;SDS011;53237;46.158;14.604;2023-04-24T14:13:00;3.05;;;2.85;;
66425;SDS011;53237;46.158;14.604;2023-04-24T14:15:26;4.00;;;3.30;;
66425;SDS011;53237;46.158;14.604;2023-04-24T14:17:52;4.15;;;3.15;;
66425;SDS011;53237;46.158;14.604;2023-04-24T14:20:18;2.78;;;2.40;;
66425;SDS011;53237;46.158;14.604;2023-04-24T14:22:44;2.03;;;1.83;;
66425;SDS011;53237;46.158;14.604;2023-04-24T14:25:10;3.13;;;2.33;;
66425;SDS011;53237;46.158;14.604;2023-04-24T14:27:36;2.30;;;2.10;;
66425;SDS011;53237;46.158;14.604;2023-04-24T14:30:03;2.90;;;2.28;;
66425;SDS011;53237;46.158;14.604;2023-04-24T14:32:29;3.33;;;2.08;;
66425;SDS011;53237;46.158;14.604;2023-04-24T14:34:55;4.80;;;2.38;;
66425;SDS011;53237;46.158;14.604;2023-04-24T14:37:21;2.13;;;2.00;;
66425;SDS011;53237;46.158;14.604;2023-04-24T14:39:47;3.08;;;2.65;;
66425;SDS011;53237;46.158;14.604;2023-04-24T14:42:13;2.72;;;2.22;;